sensor_id;sensor_type;location;lat;lon;timestamp;pressure;altitude;pressure_sealevel;temperature;humidity
68712;BME280;55690;51.566;19.198;2023-11-21T00:02:35;100785.25;;;9.21;100.00
68712;BME280;55690;51.566;19.198;2023-11-21T00:06:41;100782.95;;;9.15;100.00
68712;BME280;55690;51.566;19.198;2023-11-21T00:10:48;100787.09;;;9.20;100.00
68712;BME280;55690;51.566;19.198;2023-11-21T00:14:55;100797.77;;;9.36;100.00
68712;BME280;55690;51.566;19.198;2023-11-21T00:19:01;100805.04;;;9.36;100.00
68712;BME280;55690;51.566;19.198;2023-11-21T00:23:07;100796.09;;;9.21;100.00
68712;BME280;55690;51.566;19.198;2023-11-21T00:27:13;100801.39;;;9.10;100.00
68712;BME280;55690;51.566;19.198;2023-11-21T00:31:19;100799.52;;;9.10;100.00
68712;BME280;55690;51.566;19.198;2023-11-21T00:35:25;100803.23;;;9.09;100.00
68712;BME280;55690;51.566;19.198;2023-11-21T00:39:31;100808.20;;;9.15;100.00
68712;BME280;55690;51.566;19.198;2023-11-21T00:43:38;100807.80;;;9.21;100.00
68712;BME280;55690;51.566;19.198;2023-11-21T00:47:44;100809.08;;;9.16;100.00
68712;BME280;55690;51.566;19.198;2023-11-21T00:51:50;100806.93;;;9.21;100.00
68712;BME280;55690;51.566;19.198;2023-11-21T00:55:56;100821.75;;;9.15;100.00
68712;BME280;55690;51.566;19.198;2023-11-21T01:00:03;100821.80;;;9.28;100.00
68712;BME280;55690;51.566;19.198;2023-11-21T01:04:14;100819.10;;;9.28;100.00
68712;BME280;55690;51.566;19.198;2023-11-21T01:08:15;100821.80;;;9.28;100.00
68712;BME280;55690;51.566;19.198;2023-11-21T01:12:21;100827.44;;;9.25;100.00
68712;BME280;55690;51.566;19.198;2023-11-21T01:16:27;100825.08;;;9.33;100.00
68712;BME280;55690;51.566;19.198;2023-11-21T01:20:34;100830.59;;;9.31;100.00
68712;BME280;55690;51.566;19.198;2023-11-21T01:24:39;100823.26;;;9.07;100.00
68712;BME280;55690;51.566;19.198;2023-11-21T01:28:46;100818.65;;;8.94;100.00
68712;BME280;55690;51.566;19.198;2023-11-21T01:32:52;100839.24;;;8.97;100.00
68712;BME280;55690;51.566;19.198;2023-11-21T01:36:59;100836.64;;;8.95;100.00
68712;BME280;55690;51.566;19.198;2023-11-21T01:41:05;100840.33;;;8.80;100.00
68712;BME280;55690;51.566;19.198;2023-11-21T01:45:11;100834.63;;;8.85;100.00
68712;BME280;55690;51.566;19.198;2023-11-21T01:49:17;100841.31;;;8.79;100.00
68712;BME280;55690;51.566;19.198;2023-11-21T01:53:24;100836.09;;;8.76;100.00
68712;BME280;55690;51.566;19.198;2023-11-21T01:57:29;100848.52;;;8.52;100.00
68712;BME280;55690;51.566;19.198;2023-11-21T02:01:35;100851.31;;;8.50;100.00
68712;BME280;55690;51.566;19.198;2023-11-21T02:05:41;100841.45;;;8.63;100.00
68712;BME280;55690;51.566;19.198;2023-11-21T02:09:47;100840.69;;;8.33;100.00
68712;BME280;55690;51.566;19.198;2023-11-21T02:13:54;100838.75;;;8.35;100.00
68712;BME280;55690;51.566;19.198;2023-11-21T02:18:00;100845.29;;;8.31;100.00
68712;BME280;55690;51.566;19.198;2023-11-21T02:22:06;100853.14;;;8.21;100.00
68712;BME280;55690;51.566;19.198;2023-11-21T02:26:13;100853.23;;;8.20;100.00
68712;BME280;55690;51.566;19.198;2023-11-21T02:30:18;100860.76;;;8.15;100.00
68712;BME280;55690;51.566;19.198;2023-11-21T02:34:24;100863.52;;;7.99;100.00
68712;BME280;55690;51.566;19.198;2023-11-21T02:38:31;100866.00;;;7.88;100.00
68712;BME280;55690;51.566;19.198;2023-11-21T02:42:37;100868.02;;;7.70;100.00
68712;BME280;55690;51.566;19.198;2023-11-21T02:46:43;100874.20;;;7.72;100.00
68712;BME280;55690;51.566;19.198;2023-11-21T02:50:49;100875.61;;;7.63;100.00
68712;BME280;55690;51.566;19.198;2023-11-21T02:54:56;100876.92;;;7.86;100.00
68712;BME280;55690;51.566;19.198;2023-11-21T02:59:02;100881.98;;;7.62;100.00
68712;BME280;55690;51.566;19.198;2023-11-21T03:03:08;100883.38;;;7.84;100.00
68712;BME280;55690;51.566;19.198;2023-11-21T03:07:14;100885.31;;;7.52;100.00
68712;BME280;55690;51.566;19.198;2023-11-21T03:11:20;100894.65;;;7.46;100.00
68712;BME280;55690;51.566;19.198;2023-11-21T03:15:26;100894.88;;;7.57;100.00
68712;BME280;55690;51.566;19.198;2023-11-21T03:19:35;100897.02;;;7.37;100.00
68712;BME280;55690;51.566;19.198;2023-11-21T03:23:41;100898.40;;;7.44;100.00
68712;BME280;55690;51.566;19.198;2023-11-21T03:27:45;100894.88;;;7.27;100.00
68712;BME280;55690;51.566;19.198;2023-11-21T03:31:51;100906.02;;;7.21;100.00
68712;BME280;55690;51.566;19.198;2023-11-21T03:35:57;100912.47;;;7.19;100.00
68712;BME280;55690;51.566;19.198;2023-11-21T03:40:05;100919.49;;;7.37;100.00
68712;BME280;55690;51.566;19.198;2023-11-21T03:44:10;100917.79;;;7.20;100.00
68712;BME280;55690;51.566;19.198;2023-11-21T03:48:24;100921.18;;;7.24;100.00
68712;BME280;55690;51.566;19.198;2023-11-21T03:52:28;100918.88;;;7.48;100.00
68712;BME280;55690;51.566;19.198;2023-11-21T03:56:30;100917.09;;;7.32;100.00
68712;BME280;55690;51.566;19.198;2023-11-21T04:00:34;100923.85;;;7.40;100.00
68712;BME280;55690;51.566;19.198;2023-11-21T04:04:40;100925.88;;;7.20;100.00
68712;BME280;55690;51.566;19.198;2023-11-21T04:08:47;100935.64;;;7.23;100.00
68712;BME280;55690;51.566;19.198;2023-11-21T04:12:53;100938.43;;;7.21;100.00
68712;BME280;55690;51.566;19.198;2023-11-21T04:16:59;100942.95;;;6.89;100.00
68712;BME280;55690;51.566;19.198;2023-11-21T04:21:06;100941.38;;;6.85;100.00
68712;BME280;55690;51.566;19.198;2023-11-21T04:25:14;100936.94;;;6.84;100.00
68712;BME280;55690;51.566;19.198;2023-11-21T04:29:18;100939.05;;;6.62;100.00
68712;BME280;55690;51.566;19.198;2023-11-21T04:33:24;100947.91;;;6.81;100.00
68712;BME280;55690;51.566;19.198;2023-11-21T04:37:30;100952.02;;;6.88;100.00
68712;BME280;55690;51.566;19.198;2023-11-21T04:41:36;100952.59;;;6.78;100.00
68712;BME280;55690;51.566;19.198;2023-11-21T04:45:42;100950.80;;;6.61;100.00
68712;BME280;55690;51.566;19.198;2023-11-21T04:49:48;100954.80;;;6.87;100.00
68712;BME280;55690;51.566;19.198;2023-11-21T04:53:55;100960.52;;;6.81;100.00
68712;BME280;55690;51.566;19.198;2023-11-21T04:58:02;100958.87;;;6.94;100.00
68712;BME280;55690;51.566;19.198;2023-11-21T05:02:07;100960.07;;;6.73;100.00
68712;BME280;55690;51.566;19.198;2023-11-21T05:06:13;100960.85;;;6.75;100.00
68712;BME280;55690;51.566;19.198;2023-11-21T05:10:19;100966.81;;;6.31;100.00
68712;BME280;55690;51.566;19.198;2023-11-21T05:14:26;100974.75;;;6.34;100.00
68712;BME280;55690;51.566;19.198;2023-11-21T05:18:32;100970.15;;;6.36;100.00
68712;BME280;55690;51.566;19.198;2023-11-21T05:22:38;100980.06;;;6.36;100.00
68712;BME280;55690;51.566;19.198;2023-11-21T05:26:45;100976.17;;;6.41;100.00
68712;BME280;55690;51.566;19.198;2023-11-21T05:30:53;100976.27;;;6.22;100.00
68712;BME280;55690;51.566;19.198;2023-11-21T05:34:59;100973.59;;;6.55;100.00
68712;BME280;55690;51.566;19.198;2023-11-21T05:39:03;100982.72;;;6.53;100.00
68712;BME280;55690;51.566;19.198;2023-11-21T05:43:09;100989.50;;;6.44;100.00
68712;BME280;55690;51.566;19.198;2023-11-21T05:47:15;100989.42;;;6.28;100.00
68712;BME280;55690;51.566;19.198;2023-11-21T05:51:21;100988.91;;;6.55;100.00
68712;BME280;55690;51.566;19.198;2023-11-21T05:55:29;100996.35;;;6.67;100.00
68712;BME280;55690;51.566;19.198;2023-11-21T05:59:34;101000.60;;;6.38;100.00
68712;BME280;55690;51.566;19.198;2023-11-21T06:03:42;101018.66;;;6.53;100.00
68712;BME280;55690;51.566;19.198;2023-11-21T06:07:46;101008.95;;;6.33;100.00
68712;BME280;55690;51.566;19.198;2023-11-21T06:11:53;101013.31;;;5.83;100.00
68712;BME280;55690;51.566;19.198;2023-11-21T06:16:00;101029.48;;;5.83;100.00
68712;BME280;55690;51.566;19.198;2023-11-21T06:20:07;101028.61;;;5.82;100.00
68712;BME280;55690;51.566;19.198;2023-11-21T06:24:15;101046.90;;;5.76;100.00
68712;BME280;55690;51.566;19.198;2023-11-21T06:28:19;101046.52;;;5.83;100.00
68712;BME280;55690;51.566;19.198;2023-11-21T06:32:25;101049.22;;;5.83;100.00
68712;BME280;55690;51.566;19.198;2023-11-21T06:36:33;101049.68;;;5.93;100.00
68712;BME280;55690;51.566;19.198;2023-11-21T06:40:36;101035.09;;;5.42;100.00
68712;BME280;55690;51.566;19.198;2023-11-21T06:44:42;101057.25;;;5.66;100.00
68712;BME280;55690;51.566;19.198;2023-11-21T06:48:48;101063.77;;;5.62;100.00
68712;BME280;55690;51.566;19.198;2023-11-21T06:52:54;101078.61;;;5.33;100.00
68712;BME280;55690;51.566;19.198;2023-11-21T06:57:01;101078.89;;;5.27;100.00
68712;BME280;55690;51.566;19.198;2023-11-21T07:01:07;101090.86;;;5.01;100.00
68712;BME280;55690;51.566;19.198;2023-11-21T07:05:13;101098.01;;;5.21;100.00
68712;BME280;55690;51.566;19.198;2023-11-21T07:09:21;101095.18;;;5.24;100.00
68712;BME280;55690;51.566;19.198;2023-11-21T07:13:25;101100.21;;;5.13;100.00
68712;BME280;55690;51.566;19.198;2023-11-21T07:17:32;101081.80;;;4.83;100.00
68712;BME280;55690;51.566;19.198;2023-11-21T07:21:39;101104.93;;;5.08;100.00
68712;BME280;55690;51.566;19.198;2023-11-21T07:25:44;101117.30;;;5.12;100.00
68712;BME280;55690;51.566;19.198;2023-11-21T07:29:51;101110.04;;;5.14;100.00
68712;BME280;55690;51.566;19.198;2023-11-21T07:33:57;101117.84;;;5.39;100.00
68712;BME280;55690;51.566;19.198;2023-11-21T07:38:02;101120.41;;;5.03;100.00
68712;BME280;55690;51.566;19.198;2023-11-21T07:42:09;101119.99;;;5.12;100.00
68712;BME280;55690;51.566;19.198;2023-11-21T07:46:15;101130.23;;;5.04;100.00
68712;BME280;55690;51.566;19.198;2023-11-21T07:50:23;101130.51;;;4.97;100.00
68712;BME280;55690;51.566;19.198;2023-11-21T07:54:31;101131.99;;;5.23;100.00
68712;BME280;55690;51.566;19.198;2023-11-21T07:58:41;101135.14;;;4.94;100.00
68712;BME280;55690;51.566;19.198;2023-11-21T08:02:43;101143.82;;;4.80;100.00
68712;BME280;55690;51.566;19.198;2023-11-21T08:06:50;101141.75;;;4.66;100.00
68712;BME280;55690;51.566;19.198;2023-11-21T08:10:52;101152.56;;;4.85;100.00
68712;BME280;55690;51.566;19.198;2023-11-21T08:15:04;101159.89;;;4.82;100.00
68712;BME280;55690;51.566;19.198;2023-11-21T08:19:11;101156.07;;;4.87;100.00
68712;BME280;55690;51.566;19.198;2023-11-21T08:23:20;101159.51;;;4.71;100.00
68712;BME280;55690;51.566;19.198;2023-11-21T08:27:26;101169.48;;;4.47;100.00
68712;BME280;55690;51.566;19.198;2023-11-21T08:31:30;101179.42;;;4.45;100.00
68712;BME280;55690;51.566;19.198;2023-11-21T08:35:34;101175.14;;;4.19;100.00
68712;BME280;55690;51.566;19.198;2023-11-21T08:39:40;101177.78;;;4.62;100.00
68712;BME280;55690;51.566;19.198;2023-11-21T08:43:55;101186.45;;;4.27;100.00
68712;BME280;55690;51.566;19.198;2023-11-21T08:48:01;101182.69;;;4.09;100.00
68712;BME280;55690;51.566;19.198;2023-11-21T08:52:05;101183.92;;;3.79;100.00
68712;BME280;55690;51.566;19.198;2023-11-21T08:56:33;101199.13;;;4.01;100.00
68712;BME280;55690;51.566;19.198;2023-11-21T09:00:25;101204.02;;;4.14;100.00
68712;BME280;55690;51.566;19.198;2023-11-21T09:04:27;101203.86;;;3.95;100.00
68712;BME280;55690;51.566;19.198;2023-11-21T09:08:30;101211.14;;;4.15;100.00
68712;BME280;55690;51.566;19.198;2023-11-21T09:12:36;101208.81;;;4.06;100.00
68712;BME280;55690;51.566;19.198;2023-11-21T09:16:40;101216.57;;;4.13;100.00
68712;BME280;55690;51.566;19.198;2023-11-21T09:20:44;101218.72;;;4.27;100.00
68712;BME280;55690;51.566;19.198;2023-11-21T09:24:49;101233.97;;;4.26;100.00
68712;BME280;55690;51.566;19.198;2023-11-21T09:28:51;101233.73;;;3.87;100.00
68712;BME280;55690;51.566;19.198;2023-11-21T09:32:56;101227.72;;;3.81;100.00
68712;BME280;55690;51.566;19.198;2023-11-21T09:37:02;101230.15;;;3.40;100.00
68712;BME280;55690;51.566;19.198;2023-11-21T09:41:21;101232.30;;;3.54;100.00
68712;BME280;55690;51.566;19.198;2023-11-21T09:45:33;101228.52;;;3.59;100.00
68712;BME280;55690;51.566;19.198;2023-11-21T09:49:37;101236.99;;;3.72;100.00
68712;BME280;55690;51.566;19.198;2023-11-21T09:53:44;101234.22;;;3.50;100.00
68712;BME280;55690;51.566;19.198;2023-11-21T09:57:56;101238.32;;;3.37;100.00
68712;BME280;55690;51.566;19.198;2023-11-21T10:01:58;101240.45;;;3.27;100.00
68712;BME280;55690;51.566;19.198;2023-11-21T10:06:00;101239.08;;;3.16;100.00
68712;BME280;55690;51.566;19.198;2023-11-21T10:10:08;101244.76;;;3.07;100.00
68712;BME280;55690;51.566;19.198;2023-11-21T10:14:11;101236.06;;;3.25;100.00
68712;BME280;55690;51.566;19.198;2023-11-21T10:18:15;101245.55;;;3.58;100.00
68712;BME280;55690;51.566;19.198;2023-11-21T10:22:17;101243.20;;;3.26;100.00
68712;BME280;55690;51.566;19.198;2023-11-21T10:26:22;101240.23;;;3.33;100.00
68712;BME280;55690;51.566;19.198;2023-11-21T10:30:28;101250.53;;;2.96;100.00
68712;BME280;55690;51.566;19.198;2023-11-21T10:34:35;101250.37;;;3.00;100.00
68712;BME280;55690;51.566;19.198;2023-11-21T10:38:43;101254.09;;;2.96;100.00
68712;BME280;55690;51.566;19.198;2023-11-21T10:42:51;101250.23;;;3.53;100.00
68712;BME280;55690;51.566;19.198;2023-11-21T10:47:00;101252.20;;;3.48;100.00
68712;BME280;55690;51.566;19.198;2023-11-21T10:51:13;101264.02;;;3.44;100.00
68712;BME280;55690;51.566;19.198;2023-11-21T10:55:20;101268.72;;;3.38;100.00
68712;BME280;55690;51.566;19.198;2023-11-21T10:59:23;101269.52;;;3.15;100.00
68712;BME280;55690;51.566;19.198;2023-11-21T11:03:27;101279.81;;;3.52;100.00
68712;BME280;55690;51.566;19.198;2023-11-21T11:07:29;101282.94;;;3.64;100.00
68712;BME280;55690;51.566;19.198;2023-11-21T11:11:43;101279.70;;;3.55;100.00
68712;BME280;55690;51.566;19.198;2023-11-21T11:15:59;101281.61;;;3.76;100.00
68712;BME280;55690;51.566;19.198;2023-11-21T11:20:12;101232.42;;;3.03;100.00
68712;BME280;55690;51.566;19.198;2023-11-21T11:24:27;101281.07;;;3.17;100.00
68712;BME280;55690;51.566;19.198;2023-11-21T11:32:52;101298.14;;;2.89;100.00
68712;BME280;55690;51.566;19.198;2023-11-21T11:37:02;101289.16;;;3.42;100.00
68712;BME280;55690;51.566;19.198;2023-11-21T11:41:06;101296.85;;;3.01;100.00
68712;BME280;55690;51.566;19.198;2023-11-21T11:45:18;101281.31;;;3.36;100.00
68712;BME280;55690;51.566;19.198;2023-11-21T11:49:28;101288.20;;;3.18;100.00
68712;BME280;55690;51.566;19.198;2023-11-21T11:53:41;101301.84;;;2.85;100.00
68712;BME280;55690;51.566;19.198;2023-11-21T11:57:48;101305.07;;;3.21;100.00
68712;BME280;55690;51.566;19.198;2023-11-21T12:01:53;101307.86;;;3.18;100.00
68712;BME280;55690;51.566;19.198;2023-11-21T12:05:58;101302.02;;;3.32;100.00
68712;BME280;55690;51.566;19.198;2023-11-21T12:09:59;101317.41;;;3.27;100.00
68712;BME280;55690;51.566;19.198;2023-11-21T12:14:02;101318.27;;;3.03;100.00
68712;BME280;55690;51.566;19.198;2023-11-21T12:18:07;101319.20;;;3.02;100.00
68712;BME280;55690;51.566;19.198;2023-11-21T12:22:09;101306.57;;;3.04;100.00
68712;BME280;55690;51.566;19.198;2023-11-21T12:26:11;101319.79;;;2.83;100.00
68712;BME280;55690;51.566;19.198;2023-11-21T12:30:17;101323.55;;;2.78;100.00
68712;BME280;55690;51.566;19.198;2023-11-21T12:34:24;101325.02;;;2.88;100.00
68712;BME280;55690;51.566;19.198;2023-11-21T12:38:34;101335.22;;;2.49;100.00
68712;BME280;55690;51.566;19.198;2023-11-21T12:42:41;101341.00;;;2.63;100.00
68712;BME280;55690;51.566;19.198;2023-11-21T12:46:43;101341.25;;;2.83;100.00
68712;BME280;55690;51.566;19.198;2023-11-21T12:50:46;101352.91;;;2.25;100.00
68712;BME280;55690;51.566;19.198;2023-11-21T12:59:14;101359.98;;;2.27;100.00
68712;BME280;55690;51.566;19.198;2023-11-21T13:03:20;101338.55;;;2.27;100.00
68712;BME280;55690;51.566;19.198;2023-11-21T13:07:27;101365.40;;;2.55;100.00
68712;BME280;55690;51.566;19.198;2023-11-21T13:11:30;101384.98;;;2.28;100.00
68712;BME280;55690;51.566;19.198;2023-11-21T13:15:39;101385.13;;;2.53;100.00
68712;BME280;55690;51.566;19.198;2023-11-21T13:19:43;101387.88;;;2.20;100.00
68712;BME280;55690;51.566;19.198;2023-11-21T13:23:48;101392.32;;;2.21;100.00
68712;BME280;55690;51.566;19.198;2023-11-21T13:27:58;101408.02;;;2.04;100.00
68712;BME280;55690;51.566;19.198;2023-11-21T13:32:03;101408.15;;;1.99;100.00
68712;BME280;55690;51.566;19.198;2023-11-21T13:36:08;101410.98;;;2.24;100.00
68712;BME280;55690;51.566;19.198;2023-11-21T13:40:11;101420.58;;;2.02;100.00
68712;BME280;55690;51.566;19.198;2023-11-21T13:44:24;101442.09;;;1.99;100.00
68712;BME280;55690;51.566;19.198;2023-11-21T13:48:38;101451.39;;;2.17;100.00
68712;BME280;55690;51.566;19.198;2023-11-21T13:52:49;101455.09;;;2.44;100.00
68712;BME280;55690;51.566;19.198;2023-11-21T13:56:54;101463.40;;;2.04;100.00
68712;BME280;55690;51.566;19.198;2023-11-21T14:00:56;101462.08;;;1.86;100.00
68712;BME280;55690;51.566;19.198;2023-11-21T14:04:58;101464.86;;;2.15;100.00
68712;BME280;55690;51.566;19.198;2023-11-21T14:09:07;101482.49;;;2.22;100.00
68712;BME280;55690;51.566;19.198;2023-11-21T14:13:10;101487.46;;;2.05;100.00
68712;BME280;55690;51.566;19.198;2023-11-21T14:17:20;101488.05;;;1.48;100.00
68712;BME280;55690;51.566;19.198;2023-11-21T14:21:26;101491.64;;;1.81;100.00
68712;BME280;55690;51.566;19.198;2023-11-21T14:25:31;101493.82;;;2.01;100.00
68712;BME280;55690;51.566;19.198;2023-11-21T14:29:45;101494.63;;;1.71;100.00
68712;BME280;55690;51.566;19.198;2023-11-21T14:33:47;101497.84;;;1.83;100.00
68712;BME280;55690;51.566;19.198;2023-11-21T14:37:49;101501.89;;;1.65;100.00
68712;BME280;55690;51.566;19.198;2023-11-21T14:41:52;101510.13;;;1.92;100.00
68712;BME280;55690;51.566;19.198;2023-11-21T14:45:56;101503.62;;;2.02;100.00
68712;BME280;55690;51.566;19.198;2023-11-21T14:50:01;101506.52;;;1.93;100.00
68712;BME280;55690;51.566;19.198;2023-11-21T14:54:12;101521.52;;;1.66;100.00
68712;BME280;55690;51.566;19.198;2023-11-21T14:58:14;101523.13;;;1.73;100.00
68712;BME280;55690;51.566;19.198;2023-11-21T15:02:25;101530.75;;;1.16;100.00
68712;BME280;55690;51.566;19.198;2023-11-21T15:06:38;101537.15;;;1.09;100.00
68712;BME280;55690;51.566;19.198;2023-11-21T15:10:43;101539.13;;;0.99;100.00
68712;BME280;55690;51.566;19.198;2023-11-21T15:14:54;101539.11;;;1.39;100.00
68712;BME280;55690;51.566;19.198;2023-11-21T15:18:58;101548.19;;;1.32;100.00
68712;BME280;55690;51.566;19.198;2023-11-21T15:22:59;101553.95;;;1.15;100.00
68712;BME280;55690;51.566;19.198;2023-11-21T15:27:01;101557.44;;;1.19;100.00
68712;BME280;55690;51.566;19.198;2023-11-21T15:31:05;101556.49;;;1.21;100.00
68712;BME280;55690;51.566;19.198;2023-11-21T15:35:09;101561.53;;;1.33;100.00
68712;BME280;55690;51.566;19.198;2023-11-21T15:39:15;101564.01;;;1.43;100.00
68712;BME280;55690;51.566;19.198;2023-11-21T15:43:17;101579.31;;;0.96;100.00
68712;BME280;55690;51.566;19.198;2023-11-21T15:47:18;101597.95;;;0.56;100.00
68712;BME280;55690;51.566;19.198;2023-11-21T15:51:20;101603.41;;;0.94;100.00
68712;BME280;55690;51.566;19.198;2023-11-21T15:55:21;101604.17;;;1.01;100.00
68712;BME280;55690;51.566;19.198;2023-11-21T15:59:23;101604.02;;;1.09;100.00
68712;BME280;55690;51.566;19.198;2023-11-21T16:03:32;101617.17;;;1.19;100.00
68712;BME280;55690;51.566;19.198;2023-11-21T16:07:35;101619.58;;;0.88;100.00
68712;BME280;55690;51.566;19.198;2023-11-21T16:11:39;101626.39;;;1.05;100.00
68712;BME280;55690;51.566;19.198;2023-11-21T16:15:42;101643.89;;;1.21;100.00
68712;BME280;55690;51.566;19.198;2023-11-21T16:19:43;101655.40;;;0.81;100.00
68712;BME280;55690;51.566;19.198;2023-11-21T16:23:45;101655.51;;;0.75;100.00
68712;BME280;55690;51.566;19.198;2023-11-21T16:27:47;101657.55;;;0.61;100.00
68712;BME280;55690;51.566;19.198;2023-11-21T16:31:49;101659.32;;;0.62;100.00
68712;BME280;55690;51.566;19.198;2023-11-21T16:35:54;101666.83;;;0.42;100.00
68712;BME280;55690;51.566;19.198;2023-11-21T16:39:56;101671.08;;;0.52;100.00
68712;BME280;55690;51.566;19.198;2023-11-21T16:43:58;101672.57;;;0.68;100.00
68712;BME280;55690;51.566;19.198;2023-11-21T16:47:59;101686.88;;;0.65;100.00
68712;BME280;55690;51.566;19.198;2023-11-21T16:52:04;101684.54;;;0.46;100.00
68712;BME280;55690;51.566;19.198;2023-11-21T16:56:08;101689.58;;;0.64;100.00
68712;BME280;55690;51.566;19.198;2023-11-21T17:00:10;101702.19;;;0.56;100.00
68712;BME280;55690;51.566;19.198;2023-11-21T17:04:16;101701.15;;;0.64;100.00
68712;BME280;55690;51.566;19.198;2023-11-21T17:08:22;101708.44;;;0.55;100.00
68712;BME280;55690;51.566;19.198;2023-11-21T17:12:28;101703.58;;;0.78;100.00
68712;BME280;55690;51.566;19.198;2023-11-21T17:16:35;101710.73;;;0.76;100.00
68712;BME280;55690;51.566;19.198;2023-11-21T17:20:40;101708.53;;;0.98;100.00
68712;BME280;55690;51.566;19.198;2023-11-21T17:24:47;101715.39;;;0.65;100.00
68712;BME280;55690;51.566;19.198;2023-11-21T17:28:53;101724.50;;;0.53;100.00
68712;BME280;55690;51.566;19.198;2023-11-21T17:32:59;101727.98;;;0.58;100.00
68712;BME280;55690;51.566;19.198;2023-11-21T17:37:06;101726.99;;;0.64;100.00
68712;BME280;55690;51.566;19.198;2023-11-21T17:41:11;101742.93;;;0.70;100.00
68712;BME280;55690;51.566;19.198;2023-11-21T17:45:18;101751.42;;;0.43;100.00
68712;BME280;55690;51.566;19.198;2023-11-21T17:49:24;101741.21;;;0.66;100.00
68712;BME280;55690;51.566;19.198;2023-11-21T17:53:30;101743.18;;;0.55;100.00
68712;BME280;55690;51.566;19.198;2023-11-21T17:57:36;101752.79;;;0.66;100.00
68712;BME280;55690;51.566;19.198;2023-11-21T18:01:42;101755.55;;;0.60;100.00
68712;BME280;55690;51.566;19.198;2023-11-21T18:05:48;101758.30;;;0.56;100.00
68712;BME280;55690;51.566;19.198;2023-11-21T18:09:55;101759.83;;;0.72;100.00
68712;BME280;55690;51.566;19.198;2023-11-21T18:14:01;101746.05;;;0.93;100.00
68712;BME280;55690;51.566;19.198;2023-11-21T18:18:10;101779.54;;;0.65;100.00
68712;BME280;55690;51.566;19.198;2023-11-21T18:22:13;101778.11;;;0.95;100.00
68712;BME280;55690;51.566;19.198;2023-11-21T18:26:19;101783.34;;;1.03;100.00
68712;BME280;55690;51.566;19.198;2023-11-21T18:30:26;101789.20;;;0.74;100.00
68712;BME280;55690;51.566;19.198;2023-11-21T18:34:32;101795.35;;;0.79;100.00
68712;BME280;55690;51.566;19.198;2023-11-21T18:38:39;101786.48;;;0.77;100.00
68712;BME280;55690;51.566;19.198;2023-11-21T18:42:44;101800.34;;;0.45;100.00
68712;BME280;55690;51.566;19.198;2023-11-21T18:46:50;101808.22;;;0.54;100.00
68712;BME280;55690;51.566;19.198;2023-11-21T18:50:56;101788.32;;;0.16;100.00
68712;BME280;55690;51.566;19.198;2023-11-21T18:55:03;101814.83;;;0.31;100.00
68712;BME280;55690;51.566;19.198;2023-11-21T18:59:09;101817.23;;;0.47;100.00
68712;BME280;55690;51.566;19.198;2023-11-21T19:03:15;101822.40;;;0.59;100.00
68712;BME280;55690;51.566;19.198;2023-11-21T19:07:21;101833.48;;;0.35;100.00
68712;BME280;55690;51.566;19.198;2023-11-21T19:11:27;101842.46;;;0.29;100.00
68712;BME280;55690;51.566;19.198;2023-11-21T19:15:34;101842.81;;;0.64;100.00
68712;BME280;55690;51.566;19.198;2023-11-21T19:19:40;101843.63;;;0.70;100.00
68712;BME280;55690;51.566;19.198;2023-11-21T19:23:46;101838.18;;;0.76;100.00
68712;BME280;55690;51.566;19.198;2023-11-21T19:27:52;101863.48;;;0.52;100.00
68712;BME280;55690;51.566;19.198;2023-11-21T19:31:58;101877.70;;;0.54;100.00
68712;BME280;55690;51.566;19.198;2023-11-21T19:36:05;101867.73;;;0.02;100.00
68712;BME280;55690;51.566;19.198;2023-11-21T19:40:12;101887.84;;;0.32;100.00
68712;BME280;55690;51.566;19.198;2023-11-21T19:44:17;101895.19;;;0.13;100.00
68712;BME280;55690;51.566;19.198;2023-11-21T19:48:23;101893.09;;;0.40;100.00
68712;BME280;55690;51.566;19.198;2023-11-21T19:52:29;101898.59;;;0.26;100.00
68712;BME280;55690;51.566;19.198;2023-11-21T19:56:37;101902.05;;;0.34;100.00
68712;BME280;55690;51.566;19.198;2023-11-21T20:00:42;101907.34;;;0.39;100.00
68712;BME280;55690;51.566;19.198;2023-11-21T20:04:48;101920.34;;;0.63;100.00
68712;BME280;55690;51.566;19.198;2023-11-21T20:08:54;101923.14;;;0.54;100.00
68712;BME280;55690;51.566;19.198;2023-11-21T20:13:00;101924.09;;;0.50;100.00
68712;BME280;55690;51.566;19.198;2023-11-21T20:17:09;101944.88;;;0.28;100.00
68712;BME280;55690;51.566;19.198;2023-11-21T20:21:19;101948.48;;;0.24;100.00
68712;BME280;55690;51.566;19.198;2023-11-21T20:25:21;101960.95;;;0.25;100.00
68712;BME280;55690;51.566;19.198;2023-11-21T20:29:28;101975.21;;;0.22;100.00
68712;BME280;55690;51.566;19.198;2023-11-21T20:33:34;101964.60;;;0.16;100.00
68712;BME280;55690;51.566;19.198;2023-11-21T20:37:40;101966.09;;;0.42;100.00
68712;BME280;55690;51.566;19.198;2023-11-21T20:41:47;101974.79;;;0.56;100.00
68712;BME280;55690;51.566;19.198;2023-11-21T20:45:52;101981.58;;;0.11;100.00
68712;BME280;55690;51.566;19.198;2023-11-21T20:49:58;101983.13;;;0.31;100.00
68712;BME280;55690;51.566;19.198;2023-11-21T20:54:05;101986.45;;;0.49;100.00
68712;BME280;55690;51.566;19.198;2023-11-21T20:58:11;101995.53;;;0.37;100.00
68712;BME280;55690;51.566;19.198;2023-11-21T21:02:17;101993.29;;;0.73;100.00
68712;BME280;55690;51.566;19.198;2023-11-21T21:06:23;102007.21;;;0.28;100.00
68712;BME280;55690;51.566;19.198;2023-11-21T21:10:29;102018.81;;;0.26;100.00
68712;BME280;55690;51.566;19.198;2023-11-21T21:14:35;102027.95;;;0.02;100.00
68712;BME280;55690;51.566;19.198;2023-11-21T21:18:42;102023.63;;;-0.08;100.00